Terminal Aerodrome Forecast
Issued by NWS

Home | Current Version | Previous Version | Text Only | Print | Product List | Glossary Off
Versions: 1 2 3 4 5 6 7 8 9 10 11 12 13 14 15 16 17

000
FTUS43 KICT 142300
TAFCNU
TAF
KCNU 142322Z 1500/1524 16009KT P6SM BKN070
     FM151400 21011KT P6SM VCSH BKN120
     FM152000 34009KT P6SM VCSH OVC050=

USA.gov is the U.S. government's official web portal to all federal, state and local government web resources and services.